createdAt,value
2022-12-15T00:02:17.811Z,99910.97
2022-12-15T00:05:03.119Z,99909.84
2022-12-15T00:07:48.291Z,99915.75
2022-12-15T00:10:33.496Z,99921.78
2022-12-15T00:13:18.773Z,99908.41
2022-12-15T00:16:05.754Z,99906.09
2022-12-15T00:18:51.058Z,99898.59
2022-12-15T00:21:36.257Z,99893.53
2022-12-15T00:24:21.576Z,99897.28
2022-12-15T00:27:06.687Z,99892.53
2022-12-15T00:29:51.951Z,99893.19
2022-12-15T00:32:38.552Z,99893.00
2022-12-15T00:35:24.201Z,99901.53
2022-12-15T00:38:09.591Z,99897.09
2022-12-15T00:40:38.354Z,99901.72
2022-12-15T00:43:06.013Z,99906.28
2022-12-15T00:45:47.399Z,99905.13
2022-12-15T00:48:16.221Z,99888.13
2022-12-15T00:50:53.351Z,99889.25
2022-12-15T00:53:38.299Z,99893.84
2022-12-15T00:56:23.731Z,99893.34
2022-12-15T00:59:08.968Z,99890.22
2022-12-15T01:01:54.208Z,99896.94
2022-12-15T01:04:40.293Z,99903.81
2022-12-15T01:07:25.419Z,99908.75
2022-12-15T01:10:10.611Z,99904.47
2022-12-15T01:12:55.731Z,99909.38
2022-12-15T01:15:41.153Z,99919.03
2022-12-15T01:18:26.458Z,99916.25
2022-12-15T01:20:58.671Z,99901.66
2022-12-15T01:23:26.449Z,99901.19
2022-12-15T01:25:54.527Z,99905.56
2022-12-15T01:28:22.708Z,99907.56
2022-12-15T01:30:50.411Z,99899.53
2022-12-15T01:33:18.710Z,99900.88
2022-12-15T01:35:46.458Z,99894.09
2022-12-15T01:38:15.259Z,99892.59
2022-12-15T01:40:52.167Z,99898.25
2022-12-15T01:43:22.275Z,99899.78
2022-12-15T01:46:02.408Z,99905.34
2022-12-15T01:48:35.167Z,99916.19
2022-12-15T01:51:11.180Z,99919.63
2022-12-15T01:53:43.195Z,99922.94
2022-12-15T01:56:12.221Z,99922.59
2022-12-15T01:58:42.947Z,99931.94
2022-12-15T02:01:10.992Z,99948.81
2022-12-15T02:03:38.988Z,99952.59
2022-12-15T02:06:07.353Z,99952.75
2022-12-15T02:08:34.903Z,99954.41
2022-12-15T02:11:37.991Z,99954.25
2022-12-15T02:14:09.031Z,99978.00
2022-12-15T02:16:58.362Z,99964.22
2022-12-15T02:19:46.182Z,99961.69
2022-12-15T02:22:24.094Z,99955.59
2022-12-15T02:25:11.391Z,99960.00
2022-12-15T02:27:49.330Z,99959.06
2022-12-15T02:30:30.169Z,99957.44
2022-12-15T02:33:04.105Z,99961.22
2022-12-15T02:35:36.439Z,99956.69
2022-12-15T02:38:04.157Z,99962.81
2022-12-15T02:40:31.606Z,99956.47
2022-12-15T02:43:01.182Z,99956.47
2022-12-15T02:45:34.478Z,99959.56
2022-12-15T02:48:13.670Z,99953.81
2022-12-15T02:50:53.093Z,99945.47
2022-12-15T02:53:35.768Z,99953.66
2022-12-15T02:56:08.703Z,99940.88
2022-12-15T02:58:40.419Z,99945.00
2022-12-15T03:01:14.186Z,99949.03
2022-12-15T03:03:42.296Z,99959.53
2022-12-15T03:06:10.116Z,99951.06
2022-12-15T03:08:37.591Z,99955.97
2022-12-15T03:11:05.221Z,99954.53
2022-12-15T03:13:33.176Z,99954.56
2022-12-15T03:16:01.421Z,99952.59
2022-12-15T03:18:30.242Z,99945.84
2022-12-15T03:20:57.704Z,99946.69
2022-12-15T03:23:25.311Z,99948.16
2022-12-15T03:25:52.852Z,99946.81
2022-12-15T03:28:20.319Z,99956.00
2022-12-15T03:30:50.218Z,99948.97
2022-12-15T03:33:18.753Z,99952.28
2022-12-15T03:35:47.723Z,99953.75
2022-12-15T03:38:15.261Z,99956.69
2022-12-15T03:40:43.209Z,99961.44
2022-12-15T03:43:10.679Z,99964.75
2022-12-15T03:45:38.171Z,99965.72
2022-12-15T03:48:05.756Z,99969.78
2022-12-15T03:50:33.204Z,99970.63
2022-12-15T03:53:03.331Z,99960.78
2022-12-15T03:55:31.298Z,99949.63
2022-12-15T03:57:59.432Z,99967.34
2022-12-15T04:00:27.606Z,99963.25
2022-12-15T04:02:55.211Z,99961.56
2022-12-15T04:05:25.897Z,99972.38
2022-12-15T04:07:53.697Z,99963.19
2022-12-15T04:10:23.954Z,99957.00
2022-12-15T04:12:57.898Z,99951.22
2022-12-15T04:15:25.637Z,99954.28
2022-12-15T04:17:53.666Z,99952.53
2022-12-15T04:20:21.339Z,99961.38
2022-12-15T04:22:50.115Z,99952.16
2022-12-15T04:25:36.842Z,99958.56
2022-12-15T04:28:23.395Z,99968.06
2022-12-15T04:31:10.751Z,99966.22
2022-12-15T04:33:58.469Z,99960.41
2022-12-15T04:36:47.706Z,99970.84
2022-12-15T04:39:32.904Z,99966.09
2022-12-15T04:42:19.645Z,99973.66
2022-12-15T04:45:06.710Z,99978.69
2022-12-15T04:47:52.111Z,99980.78
2022-12-15T04:50:37.291Z,99976.59
2022-12-15T04:53:26.603Z,99981.53
2022-12-15T04:56:17.946Z,99983.81
2022-12-15T04:59:03.988Z,99989.19
2022-12-15T05:01:50.532Z,99985.91
2022-12-15T05:04:35.644Z,99996.88
2022-12-15T05:07:20.845Z,100005.59
2022-12-15T05:10:10.989Z,100005.72
2022-12-15T05:12:59.408Z,100013.22
2022-12-15T05:15:44.636Z,100011.13
2022-12-15T05:18:31.047Z,100014.19
2022-12-15T05:21:16.404Z,100009.72
2022-12-15T05:24:01.605Z,100021.16
2022-12-15T05:26:52.344Z,100007.59
2022-12-15T05:29:38.358Z,100015.78
2022-12-15T05:32:05.998Z,100016.63
2022-12-15T05:34:36.187Z,100021.25
2022-12-15T05:37:05.321Z,100026.31
2022-12-15T05:39:32.834Z,100016.28
2022-12-15T05:42:00.624Z,100026.31
2022-12-15T05:44:29.263Z,100025.75
2022-12-15T05:46:56.713Z,100023.00
2022-12-15T05:49:24.187Z,100022.22
2022-12-15T05:51:53.660Z,100020.38
2022-12-15T05:54:21.295Z,100029.31
2022-12-15T05:56:50.401Z,100031.28
2022-12-15T05:59:18.871Z,100033.75
2022-12-15T06:01:46.454Z,100038.38
2022-12-15T06:04:15.034Z,100045.13
2022-12-15T06:06:42.905Z,100047.47
2022-12-15T06:09:11.792Z,100041.66
2022-12-15T06:11:39.226Z,100041.84
2022-12-15T06:14:06.791Z,100052.75
2022-12-15T06:16:38.288Z,100058.84
2022-12-15T06:19:08.838Z,100061.22
2022-12-15T06:21:37.116Z,100069.66
2022-12-15T06:24:05.709Z,100063.53
2022-12-15T06:26:36.254Z,100068.34
2022-12-15T06:29:07.526Z,100057.31
2022-12-15T06:31:35.211Z,100077.59
2022-12-15T06:34:05.233Z,100083.81
2022-12-15T06:36:32.738Z,100080.22
2022-12-15T06:39:01.368Z,100085.81
2022-12-15T06:41:30.193Z,100084.63
2022-12-15T06:43:59.634Z,100085.19
2022-12-15T06:46:28.231Z,100087.78
2022-12-15T06:48:55.854Z,100090.34
2022-12-15T06:51:23.405Z,100087.44
2022-12-15T06:53:53.744Z,100098.53
2022-12-15T06:56:28.913Z,100104.75
2022-12-15T06:59:01.497Z,100103.63
2022-12-15T07:01:29.179Z,100105.47
2022-12-15T07:03:57.413Z,100102.50
2022-12-15T07:06:25.030Z,100112.13
2022-12-15T07:08:56.297Z,100117.72
2022-12-15T07:11:23.792Z,100123.63
2022-12-15T07:13:52.099Z,100132.63
2022-12-15T07:16:22.180Z,100134.97
2022-12-15T07:18:49.781Z,100137.44
2022-12-15T07:21:17.477Z,100131.88
2022-12-15T07:23:54.862Z,100140.91
2022-12-15T07:26:24.406Z,100146.28
2022-12-15T07:28:52.799Z,100142.88
2022-12-15T07:31:21.731Z,100148.97
2022-12-15T07:33:49.337Z,100151.53
2022-12-15T07:36:16.784Z,100141.41
2022-12-15T07:38:45.373Z,100146.22
2022-12-15T07:41:17.983Z,100152.00
2022-12-15T07:43:46.499Z,100160.94
2022-12-15T07:46:14.623Z,100161.59
2022-12-15T07:48:43.477Z,100168.28
2022-12-15T07:51:17.365Z,100173.81
2022-12-15T07:53:46.924Z,100178.03
2022-12-15T07:56:15.265Z,100178.13
2022-12-15T07:58:44.138Z,100189.25
2022-12-15T08:01:13.525Z,100184.16
2022-12-15T08:03:42.783Z,100189.59
2022-12-15T08:06:12.125Z,100189.41
2022-12-15T08:08:40.007Z,100193.16
2022-12-15T08:11:07.897Z,100196.59
2022-12-15T08:14:02.155Z,100197.25
2022-12-15T08:16:23.275Z,100203.97
2022-12-15T08:18:52.409Z,100191.94
2022-12-15T08:21:20.057Z,100196.06
2022-12-15T08:23:47.850Z,100208.34
2022-12-15T08:26:17.207Z,100202.81
2022-12-15T08:28:45.723Z,100207.47
2022-12-15T08:31:14.965Z,100210.63
2022-12-15T08:33:42.650Z,100209.28
2022-12-15T08:36:12.999Z,100209.84
2022-12-15T08:38:41.473Z,100213.59
2022-12-15T08:41:09.802Z,100216.56
2022-12-15T08:43:41.111Z,100213.50
2022-12-15T08:46:12.823Z,100218.91
2022-12-15T08:48:40.561Z,100219.88
2022-12-15T08:51:09.640Z,100221.72
2022-12-15T08:53:38.592Z,100231.88
2022-12-15T08:56:08.656Z,100231.91
2022-12-15T08:58:36.194Z,100236.06
2022-12-15T09:01:05.473Z,100243.59
2022-12-15T09:03:34.231Z,100248.75
2022-12-15T09:06:03.739Z,100247.09
2022-12-15T09:08:31.286Z,100249.53
2022-12-15T09:11:00.718Z,100249.09
2022-12-15T09:13:29.535Z,100254.00
2022-12-15T09:16:09.355Z,100250.41
2022-12-15T09:18:37.639Z,100254.69
2022-12-15T09:21:06.357Z,100255.69
2022-12-15T09:23:35.101Z,100258.31
2022-12-15T09:26:06.152Z,100248.50
2022-12-15T09:28:34.236Z,100247.06
2022-12-15T09:31:03.755Z,100253.78
2022-12-15T09:33:31.960Z,100249.53
2022-12-15T09:35:59.843Z,100252.78
2022-12-15T09:38:27.486Z,100248.53
2022-12-15T09:40:55.010Z,100247.91
2022-12-15T09:43:34.751Z,100248.56
2022-12-15T09:46:07.194Z,100243.31
2022-12-15T09:48:39.502Z,100239.03
2022-12-15T09:51:10.902Z,100242.69
2022-12-15T09:53:54.645Z,100243.31
2022-12-15T09:56:28.385Z,100244.78
2022-12-15T09:59:01.903Z,100250.53
2022-12-15T10:01:34.370Z,100244.81
2022-12-15T10:04:07.342Z,100249.09
2022-12-15T10:06:37.343Z,100242.84
2022-12-15T10:09:13.256Z,100243.84
2022-12-15T10:14:40.769Z,100243.47
2022-12-15T10:17:18.015Z,100248.91
2022-12-15T10:19:50.743Z,100247.56
2022-12-15T10:22:22.592Z,100242.84
2022-12-15T10:28:00.510Z,100247.09
2022-12-15T10:30:29.543Z,100246.09
2022-12-15T10:33:02.715Z,100237.88
2022-12-15T10:35:32.718Z,100259.22
2022-12-15T10:38:01.303Z,100254.47
2022-12-15T10:40:50.364Z,100256.25
2022-12-15T10:43:26.529Z,100251.00
2022-12-15T10:46:04.960Z,100248.69
2022-12-15T10:48:32.571Z,100250.78
2022-12-15T10:51:15.471Z,100250.31
2022-12-15T10:53:44.997Z,100247.47
2022-12-15T10:56:24.820Z,100250.09
2022-12-15T10:58:58.136Z,100256.31
2022-12-15T11:01:28.781Z,100257.41
2022-12-15T11:03:57.050Z,100255.31
2022-12-15T11:06:26.189Z,100264.03
2022-12-15T11:08:55.211Z,100265.28
2022-12-15T11:11:46.247Z,100258.06
2022-12-15T11:14:17.760Z,100253.44
2022-12-15T11:16:53.528Z,100248.47
2022-12-15T11:19:30.762Z,100258.69
2022-12-15T11:22:01.179Z,100253.34
2022-12-15T11:24:35.633Z,100241.50
2022-12-15T11:27:07.372Z,100253.84
2022-12-15T11:29:45.309Z,100247.22
2022-12-15T11:32:20.689Z,100254.63
2022-12-15T11:34:48.786Z,100259.41
2022-12-15T11:37:39.446Z,100250.50
2022-12-15T11:40:28.237Z,100249.50
2022-12-15T11:43:18.343Z,100258.69
2022-12-15T11:45:55.389Z,100257.00
2022-12-15T11:48:32.353Z,100252.34
2022-12-15T11:51:01.251Z,100267.66
2022-12-15T11:53:45.195Z,100269.41
2022-12-15T11:56:19.058Z,100266.25
2022-12-15T11:58:55.364Z,100265.06
2022-12-15T12:01:37.631Z,100263.91
2022-12-15T12:04:13.156Z,100265.91
2022-12-15T12:06:44.883Z,100263.09
2022-12-15T12:09:24.126Z,100267.84
2022-12-15T12:11:55.169Z,100263.53
2022-12-15T12:14:31.903Z,100268.66
2022-12-15T12:17:05.535Z,100273.09
2022-12-15T12:19:39.114Z,100267.78
2022-12-15T12:22:13.481Z,100272.34
2022-12-15T12:24:42.876Z,100274.66
2022-12-15T12:27:13.803Z,100272.31
2022-12-15T12:29:45.528Z,100277.75
2022-12-15T12:32:20.186Z,100270.75
2022-12-15T12:35:30.598Z,100273.16
2022-12-15T12:37:46.705Z,100275.41
2022-12-15T12:40:21.156Z,100271.03
2022-12-15T12:42:54.371Z,100271.72
2022-12-15T12:45:24.643Z,100276.56
2022-12-15T12:47:53.922Z,100267.72
2022-12-15T12:50:24.862Z,100274.66
2022-12-15T12:52:54.240Z,100280.75
2022-12-15T12:55:27.063Z,100284.03
2022-12-15T12:57:54.906Z,100270.66
2022-12-15T13:00:24.741Z,100272.25
2022-12-15T13:03:18.083Z,100272.69
2022-12-15T13:05:50.578Z,100276.34
2022-12-15T13:08:46.557Z,100269.22
2022-12-15T13:11:55.280Z,100273.31
2022-12-15T13:14:31.416Z,100272.97
2022-12-15T13:20:26.760Z,100271.06
2022-12-15T13:22:57.356Z,100268.81
2022-12-15T13:25:38.570Z,100266.72
2022-12-15T13:28:28.127Z,100256.63
2022-12-15T13:31:30.287Z,100257.25
2022-12-15T13:34:07.141Z,100258.16
2022-12-15T13:36:55.019Z,100256.34
2022-12-15T13:39:57.138Z,100250.25
2022-12-15T13:42:38.868Z,100256.81
2022-12-15T13:45:44.873Z,100252.06
2022-12-15T13:48:25.486Z,100255.25
2022-12-15T13:50:57.552Z,100250.88
2022-12-15T13:53:27.915Z,100253.25
2022-12-15T13:56:04.763Z,100247.44
2022-12-15T13:58:34.947Z,100258.28
2022-12-15T14:01:05.049Z,100259.47
2022-12-15T14:03:33.176Z,100260.53
2022-12-15T14:06:01.192Z,100263.00
2022-12-15T14:08:30.211Z,100264.88
2022-12-15T14:11:06.948Z,100260.34
2022-12-15T14:13:47.937Z,100274.56
2022-12-15T14:16:21.917Z,100274.66
2022-12-15T14:19:04.779Z,100282.19
2022-12-15T14:21:32.299Z,100283.75
2022-12-15T14:26:50.552Z,100290.75
2022-12-15T14:29:18.731Z,100291.13
2022-12-15T14:31:50.728Z,100297.47
2022-12-15T14:34:24.519Z,100300.59
2022-12-15T14:36:52.586Z,100294.75
2022-12-15T14:39:24.385Z,100293.81
2022-12-15T14:41:55.083Z,100288.66
2022-12-15T14:44:31.536Z,100294.75
2022-12-15T14:47:07.576Z,100296.91
2022-12-15T14:49:41.158Z,100292.72
2022-12-15T14:52:18.570Z,100288.84
2022-12-15T14:54:52.711Z,100304.03
2022-12-15T14:57:24.886Z,100300.13
2022-12-15T14:59:53.192Z,100299.28
2022-12-15T15:02:23.018Z,100298.22
2022-12-15T15:03:03.795Z,100247.75
2022-12-15T15:04:59.712Z,100306.41
2022-12-15T15:07:29.376Z,100295.28
2022-12-15T15:09:57.085Z,100297.44
2022-12-15T15:12:28.866Z,100296.75
2022-12-15T15:15:01.093Z,100297.38
2022-12-15T15:17:33.748Z,100298.44
2022-12-15T15:20:02.240Z,100296.88
2022-12-15T15:22:37.175Z,100297.00
2022-12-15T15:25:31.568Z,100299.41
2022-12-15T15:28:14.958Z,100301.81
2022-12-15T15:30:44.676Z,100309.44
2022-12-15T15:33:13.368Z,100306.63
2022-12-15T15:35:42.072Z,100309.72
2022-12-15T15:38:18.561Z,100311.06
2022-12-15T15:40:52.942Z,100305.06
2022-12-15T15:43:22.151Z,100302.72
2022-12-15T15:45:50.303Z,100310.06
2022-12-15T15:48:20.187Z,100301.06
2022-12-15T15:50:47.722Z,100300.78
2022-12-15T15:53:18.922Z,100302.88
2022-12-15T15:55:47.964Z,100315.16
2022-12-15T15:58:15.547Z,100309.88
2022-12-15T16:00:45.464Z,100309.22
2022-12-15T16:03:13.232Z,100309.88
2022-12-15T16:05:41.725Z,100312.84
2022-12-15T16:08:11.863Z,100308.75
2022-12-15T16:10:39.344Z,100303.66
2022-12-15T16:13:07.077Z,100309.09
2022-12-15T16:15:34.619Z,100305.50
2022-12-15T16:18:03.474Z,100297.28
2022-12-15T16:20:31.220Z,100300.38
2022-12-15T16:23:00.894Z,100304.66
2022-12-15T16:25:42.422Z,100305.88
2022-12-15T16:28:15.767Z,100305.88
2022-12-15T16:30:43.975Z,100311.69
2022-12-15T16:33:13.310Z,100313.47
2022-12-15T16:35:41.543Z,100317.44
2022-12-15T16:38:15.077Z,100312.28
2022-12-15T16:40:42.642Z,100315.44
2022-12-15T16:43:14.192Z,100321.53
2022-12-15T16:45:43.704Z,100312.94
2022-12-15T16:48:12.708Z,100313.94
2022-12-15T16:50:42.037Z,100322.47
2022-12-15T16:53:15.340Z,100322.75
2022-12-15T16:55:42.931Z,100329.97
2022-12-15T16:58:14.874Z,100329.41
2022-12-15T17:00:42.864Z,100324.34
2022-12-15T17:03:15.033Z,100339.09
2022-12-15T17:05:45.104Z,100345.56
2022-12-15T17:08:17.601Z,100351.34
2022-12-15T17:10:45.253Z,100350.34
2022-12-15T17:13:20.644Z,100342.28
2022-12-15T17:15:48.205Z,100343.25
2022-12-15T17:18:17.025Z,100347.00
2022-12-15T17:20:44.493Z,100352.63
2022-12-15T17:23:15.049Z,100359.03
2022-12-15T17:26:19.580Z,100360.19
2022-12-15T17:28:33.355Z,100358.38
2022-12-15T17:31:03.017Z,100367.75
2022-12-15T17:33:35.715Z,100366.00
2022-12-15T17:36:09.322Z,100363.38
2022-12-15T17:38:36.965Z,100356.56
2022-12-15T17:41:04.500Z,100354.91
2022-12-15T17:43:35.666Z,100359.03
2022-12-15T17:46:03.735Z,100361.50
2022-12-15T17:48:32.650Z,100362.97
2022-12-15T17:51:00.123Z,100364.16
2022-12-15T17:53:27.648Z,100364.94
2022-12-15T17:55:55.292Z,100369.28
2022-12-15T17:58:24.671Z,100365.50
2022-12-15T18:00:53.527Z,100365.34
2022-12-15T18:03:21.827Z,100372.78
2022-12-15T18:05:52.057Z,100363.00
2022-12-15T18:08:21.598Z,100365.88
2022-12-15T18:10:51.110Z,100374.88
2022-12-15T18:13:20.333Z,100387.09
2022-12-15T18:15:48.666Z,100376.84
2022-12-15T18:18:16.710Z,100384.44
2022-12-15T18:20:44.474Z,100387.41
2022-12-15T18:23:17.434Z,100386.09
2022-12-15T18:25:45.271Z,100386.69
2022-12-15T18:28:19.994Z,100393.06
2022-12-15T18:30:48.338Z,100392.66
2022-12-15T18:33:15.824Z,100393.31
2022-12-15T18:35:44.918Z,100405.00
2022-12-15T18:38:17.163Z,100405.16
2022-12-15T18:40:46.224Z,100404.53
2022-12-15T18:43:16.194Z,100415.88
2022-12-15T18:45:44.132Z,100421.97
2022-12-15T18:48:17.304Z,100419.63
2022-12-15T18:50:45.356Z,100416.66
2022-12-15T18:53:19.330Z,100427.22
2022-12-15T18:55:47.446Z,100430.47
2022-12-15T18:58:24.359Z,100438.06
2022-12-15T19:00:52.448Z,100431.81
2022-12-15T19:03:20.305Z,100437.66
2022-12-15T19:05:48.350Z,100425.69
2022-12-15T19:08:20.089Z,100437.22
2022-12-15T19:10:51.129Z,100436.13
2022-12-15T19:13:20.615Z,100441.22
2022-12-15T19:15:48.211Z,100451.66
2022-12-15T19:18:34.138Z,100444.06
2022-12-15T19:21:19.434Z,100443.63
2022-12-15T19:23:48.623Z,100449.88
2022-12-15T19:26:16.120Z,100453.16
2022-12-15T19:28:43.591Z,100462.91
2022-12-15T19:31:11.215Z,100465.06
2022-12-15T19:33:39.794Z,100469.31
2022-12-15T19:36:12.212Z,100473.06
2022-12-15T19:38:39.699Z,100476.38
2022-12-15T19:41:10.280Z,100480.97
2022-12-15T19:43:38.074Z,100484.59
2022-12-15T19:46:05.854Z,100489.50
2022-12-15T19:48:33.316Z,100487.84
2022-12-15T19:51:00.760Z,100488.84
2022-12-15T19:53:30.130Z,100488.09
2022-12-15T19:55:59.490Z,100487.31
2022-12-15T19:58:29.888Z,100497.25
2022-12-15T20:00:59.325Z,100495.56
2022-12-15T20:03:27.518Z,100494.69
2022-12-15T20:05:56.356Z,100495.13
2022-12-15T20:08:25.714Z,100497.31
2022-12-15T20:10:54.651Z,100493.56
2022-12-15T20:13:22.610Z,100496.72
2022-12-15T20:15:51.634Z,100488.63
2022-12-15T20:18:19.802Z,100493.00
2022-12-15T20:20:48.423Z,100489.25
2022-12-15T20:23:18.393Z,100492.22
2022-12-15T20:25:45.926Z,100500.25
2022-12-15T20:28:23.283Z,100498.09
2022-12-15T20:30:52.199Z,100490.19
2022-12-15T20:33:21.044Z,100496.28
2022-12-15T20:35:49.477Z,100491.34
2022-12-15T20:38:29.337Z,100502.28
2022-12-15T20:40:57.342Z,100501.41
2022-12-15T20:43:25.746Z,100497.47
2022-12-15T20:46:03.104Z,100503.75
2022-12-15T20:48:30.981Z,100499.47
2022-12-15T20:50:59.532Z,100506.53
2022-12-15T20:53:29.841Z,100513.94
2022-12-15T20:55:57.694Z,100509.78
2022-12-15T20:58:32.603Z,100509.31
2022-12-15T21:01:01.882Z,100501.25
2022-12-15T21:03:31.830Z,100500.25
2022-12-15T21:06:00.392Z,100497.47
2022-12-15T21:08:29.590Z,100497.47
2022-12-15T21:11:03.564Z,100490.41
2022-12-15T21:13:32.719Z,100483.97
2022-12-15T21:16:02.975Z,100475.41
2022-12-15T21:21:20.847Z,100481.81
2022-12-15T21:23:49.014Z,100471.47
2022-12-15T21:26:20.370Z,100476.09
2022-12-15T21:28:48.598Z,100473.75
2022-12-15T21:31:18.758Z,100474.09
2022-12-15T21:33:46.491Z,100473.44
2022-12-15T21:36:14.589Z,100470.81
2022-12-15T21:38:42.846Z,100478.56
2022-12-15T21:41:14.171Z,100479.88
2022-12-15T21:43:41.649Z,100485.47
2022-12-15T21:46:14.613Z,100488.63
2022-12-15T21:49:03.494Z,100494.84
2022-12-15T21:51:34.832Z,100498.19
2022-12-15T21:54:04.236Z,100501.00
2022-12-15T21:56:31.834Z,100489.97
2022-12-15T21:58:59.612Z,100493.28
2022-12-15T22:01:30.054Z,100504.59
2022-12-15T22:03:59.835Z,100511.34
2022-12-15T22:06:29.599Z,100524.88
2022-12-15T22:08:59.331Z,100519.94
2022-12-15T22:11:28.707Z,100533.94
2022-12-15T22:13:57.432Z,100530.16
2022-12-15T22:16:25.151Z,100541.03
2022-12-15T22:18:54.999Z,100545.34
2022-12-15T22:21:24.126Z,100554.53
2022-12-15T22:23:52.006Z,100544.00
2022-12-15T22:26:22.258Z,100539.56
2022-12-15T22:28:50.635Z,100539.56
2022-12-15T22:31:18.577Z,100542.19
2022-12-15T22:33:46.152Z,100537.72
2022-12-15T22:36:13.690Z,100542.19
2022-12-15T22:38:42.570Z,100552.41
2022-12-15T22:41:18.268Z,100549.59
2022-12-15T22:43:46.977Z,100539.72
2022-12-15T22:46:15.504Z,100539.88
2022-12-15T22:48:45.269Z,100555.34
2022-12-15T22:51:14.351Z,100552.41
2022-12-15T22:53:43.269Z,100554.19
2022-12-15T22:56:21.606Z,100557.50
2022-12-15T22:58:51.922Z,100551.25
2022-12-15T23:01:19.680Z,100568.69
2022-12-15T23:03:47.373Z,100567.53
2022-12-15T23:06:14.913Z,100570.00
2022-12-15T23:08:43.675Z,100553.38
2022-12-15T23:11:28.983Z,100559.94
2022-12-15T23:13:56.475Z,100562.09
2022-12-15T23:16:23.142Z,100561.78
2022-12-15T23:18:52.884Z,100566.03
2022-12-15T23:21:23.509Z,100563.41
2022-12-15T23:23:52.739Z,100569.34
2022-12-15T23:26:22.470Z,100567.69
2022-12-15T23:28:50.190Z,100569.50
2022-12-15T23:31:18.378Z,100564.56
2022-12-15T23:33:46.007Z,100567.84
2022-12-15T23:36:13.885Z,100578.88
2022-12-15T23:38:41.499Z,100579.22
2022-12-15T23:41:15.835Z,100578.88
2022-12-15T23:43:43.583Z,100579.56
2022-12-15T23:46:11.236Z,100575.44
2022-12-15T23:48:42.737Z,100579.88
2022-12-15T23:51:12.279Z,100576.44
2022-12-15T23:53:40.849Z,100574.75
2022-12-15T23:56:12.039Z,100579.88
2022-12-15T23:58:40.365Z,100582.00
